Latest Coastal Weather Observations for Roebourne Airport

IDW60701

Issued at 12:32 am WST Monday 22 December 2014 (issued every 10 minutes, with the page automatically refreshed every 10 minutes)

About coastal observations | Map of coastal stations | Coastal observations for WA | Marine services | Other Formats
Station Details ID: 004090 Name: ROEBOURNE AERO Lat: -20.76 Lon: 117.16 Height: 10.7 m
Data from the previous 72 hours. | See also: Recent months at Roebourne Airport
Date/Time
WST
Temp

°C
Wind Pressure Rain
since 9am
mm
Weather Cloud Vis
km
Sea
Height
m
Swell
Dir
 
Speed
knots
Gust
knots
hPa Trend Height
m
Period
s
Dir
22/12:30am 27.1 WNW 11 14 1006.9 - 0.0 - - - - - - -
22/12:00am 27.1 W 11 13 1007.4 - 0.0 - - - - - - -
 
Date/Time
WST
Temp

°C
Wind Pressure Rain
since 9am
mm
Weather Cloud Vis
km
Sea
Height
m
Swell
Dir
 
Speed
knots
Gust
knots
hPa Trend Height
m
Period
s
Dir
21/11:30pm 27.2 W 8 10 1007.9 - 0.0 - - - - - - -
21/11:00pm 27.3 WNW 9 11 1007.9 - 0.0 - - - - - - -
21/10:30pm 27.4 WNW 8 11 1008.2 - 0.0 - - - - - - -
21/10:00pm 27.7 W 7 9 1008.1 - 0.0 - - - - - - -
21/09:30pm 27.9 WSW 8 11 1008.1 - 0.0 - - - - - - -
21/09:00pm 28.1 W 11 15 1007.5 - 0.0 - - - - - - -
21/08:30pm 28.4 W 13 17 1007.1 - 0.0 - - - - - - -
21/08:00pm 28.8 W 12 16 1006.6 - 0.0 - - - - - - -
21/07:30pm 29.1 W 12 18 1006.1 - 0.0 - - - - - - -
21/07:00pm 29.6 WNW 13 16 1005.7 - 0.0 - - - - - - -
21/06:30pm 30.5 WNW 17 22 1005.3 - 0.0 - - - - - - -
21/06:00pm 31.5 WNW 19 23 1005.0 - 0.0 - - - - - - -
21/05:30pm 32.2 WNW 19 24 1004.8 - 0.0 - - - - - - -
21/05:00pm 33.2 WNW 19 23 1004.9 - 0.0 - - - - - - -
21/04:30pm 33.7 WNW 20 25 1005.1 - 0.0 - - - - - - -
21/04:00pm 34.2 NW 20 26 1005.4 - 0.0 - - - - - - -
21/03:30pm 34.8 NW 19 25 1005.5 - 0.0 - - - - - - -
21/03:00pm 35.4 NW 19 22 1005.7 - 0.0 - - - - - - -
21/02:30pm 35.8 NW 17 23 1005.8 - 0.0 - - - - - - -
21/02:00pm 36.1 NW 15 19 1005.9 - 0.0 - - - - - - -
21/01:30pm 36.5 NW 14 18 1006.2 - 0.0 - - - - - - -
21/01:00pm 36.6 NNW 14 20 1006.5 - 0.0 - - - - - - -
21/12:30pm 36.4 NNW 14 19 1006.7 - 0.0 - - - - - - -
21/12:00pm 37.2 NNW 14 18 1007.0 - 0.0 - - - - - - -
21/11:30am 37.7 NW 12 18 1007.1 - 0.0 - - - - - - -
21/11:00am 36.8 W 9 15 1007.5 - 0.0 - - - - - - -
21/10:30am 36.1 W 9 13 1007.6 - 0.0 - - - - - - -
21/10:00am 34.8 NW 7 11 1007.9 - 0.0 - - - - - - -
21/09:30am 34.2 NW 7 11 1008.1 - 0.0 - - - - - - -
21/09:00am 33.4 W 7 11 1008.3 - 0.0 - - - - - - -
21/08:30am 32.3 W 7 11 1008.3 - 0.0 - - - - - - -
21/08:00am 30.7 W 8 10 1008.4 - 0.0 - - - - - - -
21/07:30am 29.4 W 9 11 1008.2 - 0.0 - - - - - - -
21/07:00am 28.1 W 11 14 1008.2 - 0.0 - - - - - - -
21/06:30am 27.0 WNW 10 12 1008.2 - 0.0 - - - - - - -
21/06:00am 26.3 W 9 11 1008.1 - 0.0 - - - - - - -
21/05:30am 25.9 W 8 10 1007.7 - 0.0 - - - - - - -
21/05:00am 25.8 W 7 8 1007.6 - 0.0 - - - - - - -
21/04:30am 25.8 W 7 9 1007.4 - 0.0 - - - - - - -
21/04:00am 25.9 W 7 10 1007.3 - 0.0 - - - - - - -
21/03:30am 26.0 W 7 10 1007.3 - 0.0 - - - - - - -
21/03:00am 26.1 W 7 9 1007.1 - 0.0 - - - - - - -
21/02:30am 26.1 W 7 9 1007.2 - 0.0 - - - - - - -
21/02:00am 26.4 W 7 9 1007.6 - 0.0 - - - - - - -
21/01:30am 26.7 W 12 17 1007.3 - 0.0 - - - - - - -
21/01:00am 26.7 W 9 12 1007.7 - 0.0 - - - - - - -
21/12:30am 26.6 W 5 7 1008.5 - 0.0 - - - - - - -
21/12:00am 26.7 W 5 7 1008.7 - 0.0 - - - - - - -
 
Date/Time
WST
Temp

°C
Wind Pressure Rain
since 9am
mm
Weather Cloud Vis
km
Sea
Height
m
Swell
Dir
 
Speed
knots
Gust
knots
hPa Trend Height
m
Period
s
Dir
20/11:30pm 27.0 W 10 12 1008.8 - 0.0 - - - - - - -
20/11:00pm 27.1 W 10 13 1009.0 - 0.0 - - - - - - -
20/10:30pm 27.4 W 10 13 1009.0 - 0.0 - - - - - - -
20/10:00pm 27.6 W 12 16 1008.5 - 0.0 - - - - - - -
20/09:30pm 27.8 W 11 16 1008.3 - 0.0 - - - - - - -
20/09:00pm 28.0 WNW 13 16 1008.1 - 0.0 - - - - - - -
20/08:30pm 28.2 WNW 12 15 1007.6 - 0.0 - - - - - - -
20/08:00pm 28.6 WNW 13 16 1007.5 - 0.0 - - - - - - -
20/07:30pm 29.1 NW 13 17 1007.2 - 0.0 - - - - - - -
20/07:00pm 29.6 NW 14 18 1006.7 - 0.0 - - - - - - -
20/06:30pm 30.6 NW 15 18 1006.1 - 0.0 - - - - - - -
20/06:00pm 31.3 WNW 17 21 1005.9 - 0.0 - - - - - - -
20/05:30pm 32.2 NW 15 19 1006.2 - 0.0 - - - - - - -
20/05:00pm 33.1 NW 15 19 1006.1 - 0.0 - - - - - - -
20/04:30pm 34.7 NW 14 18 1006.0 - 0.0 - - - - - - -
20/04:00pm 34.6 NW 14 17 1006.0 - 0.0 - - - - - - -
20/03:30pm 35.2 NW 13 17 1006.1 - 0.0 - - - - - - -
20/03:00pm 36.1 NW 13 18 1006.4 - 0.0 - - - - - - -
20/02:30pm 35.6 NW 13 17 1006.6 - 0.0 - - - - - - -
20/02:00pm 35.3 NW 15 17 1006.9 - 0.0 - - - - - - -
20/01:30pm 36.1 NNW 15 19 1007.4 - 0.0 - - - - - - -
20/01:00pm 36.2 NW 13 19 1007.8 - 0.0 - - - - - - -
20/12:30pm 36.2 NW 13 20 1008.1 - 0.0 - - - - - - -
20/12:00pm 36.4 NW 13 19 1008.4 - 0.0 - - - - - - -
20/11:30am 36.4 WNW 11 17 1008.7 - 0.0 - - - - - - -
20/11:00am 35.8 WNW 9 14 1009.1 - 0.0 - - - - - - -
20/10:30am 35.9 NW 10 17 1009.6 - 0.0 - - - - - - -
20/10:00am 35.4 NW 11 15 1009.9 - 0.0 - - - - - - -
20/09:30am 34.6 W 7 10 1010.2 - 0.0 - - - - - - -
20/09:00am 34.4 NNW 6 10 1010.3 - 0.0 - - - - - - -
20/08:30am 33.0 NW 6 9 1010.4 - 0.0 - - - - - - -
20/08:00am 32.1 WSW 5 9 1010.5 - 0.0 - - - - - - -
20/07:30am 30.9 WSW 5 7 1010.3 - 0.0 - - - - - - -
20/07:00am 29.2 W 5 7 1010.2 - 0.0 - - - - - - -
20/06:30am 26.6 WNW 5 6 1009.9 - 0.0 - - - - - - -
20/06:00am 24.7 WNW 5 6 1009.7 - 0.0 - - - - - - -
20/05:30am 23.6 W 3 4 1009.6 - 0.0 - - - - - - -
20/05:00am 24.5 W 4 5 1009.3 - 0.0 - - - - - - -
20/04:30am 24.5 WNW 5 6 1009.1 - 0.0 - - - - - - -
20/04:00am 24.6 WNW 6 7 1009.1 - 0.0 - - - - - - -
20/03:30am 24.8 W 5 6 1009.1 - 0.0 - - - - - - -
20/03:00am 24.8 WSW 5 6 1009.0 - 0.0 - - - - - - -
20/02:30am 24.4 SW 3 4 1009.2 - 0.0 - - - - - - -
20/02:00am 25.3 WSW 4 5 1009.1 - 0.0 - - - - - - -
20/01:30am 25.7 WSW 7 8 1009.3 - 0.0 - - - - - - -
20/01:00am 25.9 WSW 7 8 1009.8 - 0.0 - - - - - - -
20/12:30am 26.1 WSW 5 7 1010.3 - 0.0 - - - - - - -
20/12:00am 26.3 WSW 6 8 1010.7 - 0.0 - - - - - - -
 
Date/Time
WST
Temp

°C
Wind Pressure Rain
since 9am
mm
Weather Cloud Vis
km
Sea
Height
m
Swell
Dir
 
Speed
knots
Gust
knots
hPa Trend Height
m
Period
s
Dir
19/11:30pm 26.5 WSW 7 9 1011.1 - 0.0 - - - - - - -
19/11:00pm 26.7 W 10 13 1011.4 - 0.0 - - - - - - -
19/10:30pm 26.9 W 10 14 1011.6 - 0.0 - - - - - - -
19/10:00pm 27.1 W 11 13 1011.5 - 0.0 - - - - - - -
19/09:30pm 27.4 W 12 15 1011.2 - 0.0 - - - - - - -
19/09:00pm 27.5 WNW 11 14 1010.9 - 0.0 - - - - - - -
19/08:30pm 27.6 WNW 10 11 1010.6 - 0.0 - - - - - - -
19/08:00pm 27.9 NW 9 13 1010.5 - 0.0 - - - - - - -
19/07:30pm 28.3 NW 11 14 1010.1 - 0.0 - - - - - - -
19/07:00pm 29.0 NW 10 15 1009.9 - 0.0 - - - - - - -
19/06:30pm 30.2 NW 13 17 1009.5 - 0.0 - - - - - - -
19/06:00pm 30.8 NW 15 18 1009.2 - 0.0 - - - - - - -
19/05:30pm 31.6 NW 15 18 1009.0 - 0.0 - - - - - - -
19/05:00pm 32.5 N 15 19 1008.9 - 0.0 - - - - - - -
19/04:30pm 33.2 N 17 21 1008.8 - 0.0 - - - - - - -
19/04:00pm 34.2 N 16 20 1008.4 - 0.0 - - - - - - -
19/03:30pm 34.7 N 15 18 1008.4 - 0.0 - - - - - - -
19/03:00pm 36.2 NNW 13 18 1008.5 - 0.0 - - - - - - -
19/02:30pm 35.5 N 13 19 1008.7 - 0.0 - - - - - - -
19/02:00pm 35.8 NNW 12 16 1008.8 - 0.0 - - - - - - -
19/01:30pm 35.0 N 14 18 1009.1 - 0.0 - - - - - - -
19/01:00pm 35.3 N 13 17 1009.3 - 0.0 - - - - - - -
19/12:30pm 34.8 N 13 17 1009.5 - 0.0 - - - - - - -
19/12:00pm 35.1 NNW 12 16 1009.6 - 0.0 - - - - - - -
19/11:30am 36.2 N 15 19 1009.6 - 0.0 - - - - - - -
19/11:00am 35.9 NW 7 10 1009.9 - 0.0 - - - - - - -
19/10:30am 36.0 NW 7 11 1010.1 - 0.0 - - - - - - -
19/10:00am 34.1 WNW 7 14 1010.4 - 0.0 - - - - - - -
19/09:30am 33.1 W 9 14 1010.4 - 0.0 - - - - - - -
19/09:00am 32.6 W 8 12 1010.4 - 0.0 - - - - - - -
19/08:30am 31.8 WNW 7 10 1010.6 - 0.0 - - - - - - -
19/08:00am 30.4 WNW 9 12 1010.2 - 0.0 - - - - - - -
19/07:30am 29.3 WNW 8 10 1010.0 - 0.0 - - - - - - -
19/07:00am 28.1 WNW 9 11 1009.7 - 0.0 - - - - - - -
19/06:30am 27.0 NW 7 8 1009.4 - 0.0 - - - - - - -
19/06:00am 25.8 WNW 6 8 1008.8 - 0.0 - - - - - - -
19/05:30am 25.3 WNW 7 8 1008.5 - 0.0 - - - - - - -
19/05:00am 25.4 W 6 6 1008.4 - 0.0 - - - - - - -
19/04:30am 25.8 WNW 7 8 1008.3 - 0.0 - - - - - - -
19/04:00am 25.8 WNW 5 6 1008.2 - 0.0 - - - - - - -
19/03:30am 25.7 NW 6 7 1008.2 - 0.0 - - - - - - -
19/03:00am 26.1 NW 6 7 1008.1 - 0.0 - - - - - - -
19/02:30am 26.0 NW 5 7 1008.0 - 0.0 - - - - - - -
19/02:00am 26.1 NW 6 7 1008.1 - 0.0 - - - - - - -
19/01:30am 26.4 NW 8 10 1007.9 - 0.0 - - - - - - -
19/01:00am 26.5 WNW 7 10 1007.9 - 0.0 - - - - - - -

Other Formats:

Comma delimited format used in spreadsheet applications
http://www.bom.gov.au/fwo/IDW60701/IDW60701.94308.axf

JavaScript Object Notation format (JSON) in row-major order
http://www.bom.gov.au/fwo/IDW60701/IDW60701.94308.json